Time;durP1;ratioP1;P1;durP2;ratioP2;P2;SDS_P1;SDS_P2;PMS_P1;PMS_P2;Temp;Humidity;BMP_temperature;BMP_pressure;BME280_temperature;BME280_humidity;BME280_pressure;Samples;Min_cycle;Max_cycle;Signal;HPM_P1;HPM_P2
2023/12/09 00:00:51;;;;;;;8.77;6.73;;;;;;;7.42;nan;99417.28;5028038;28;20204;-77
2023/12/09 00:03:16;;;;;;;8.77;7.30;;;;;;;7.41;nan;99416.44;5026292;28;20198;-77
2023/12/09 00:05:42;;;;;;;11.63;7.53;;;;;;;7.41;nan;99413.81;5018333;28;20194;-77
2023/12/09 00:08:08;;;;;;;11.60;8.47;;;;;;;7.45;nan;99419.72;5029003;28;20441;-78
2023/12/09 00:10:34;;;;;;;11.30;7.50;;;;;;;7.47;nan;99425.72;5026545;28;20469;-78
2023/12/09 00:13:00;;;;;;;8.50;6.45;;;;;;;7.48;nan;99425.66;5023742;28;20221;-77
2023/12/09 00:15:25;;;;;;;8.67;7.33;;;;;;;7.50;nan;99425.53;5022938;28;21058;-78
2023/12/09 00:17:51;;;;;;;12.40;7.40;;;;;;;7.49;nan;99429.09;5030858;28;20286;-77
2023/12/09 00:20:16;;;;;;;12.37;8.80;;;;;;;7.47;nan;99431.78;5024560;28;20197;-77
2023/12/09 00:22:42;;;;;;;12.53;7.50;;;;;;;7.47;nan;99423.09;5024796;28;20197;-77
2023/12/09 00:25:07;;;;;;;11.80;9.33;;;;;;;7.46;nan;99426.66;5018914;28;20283;-78
2023/12/09 00:27:34;;;;;;;12.83;6.40;;;;;;;7.46;nan;99424.88;5026397;28;20208;-77
2023/12/09 00:29:59;;;;;;;7.95;5.45;;;;;;;7.48;nan;99424.78;5025049;28;20212;-78
2023/12/09 00:32:25;;;;;;;8.63;5.40;;;;;;;7.52;nan;99423.69;5025035;28;20249;-77
2023/12/09 00:34:50;;;;;;;10.17;6.90;;;;;;;7.56;nan;99422.63;5035791;28;20634;-77
2023/12/09 00:37:16;;;;;;;9.90;5.50;;;;;;;7.61;nan;99420.56;5027815;28;20228;-77
2023/12/09 00:39:41;;;;;;;9.47;5.90;;;;;;;7.63;nan;99426.56;5022241;28;20202;-77
2023/12/09 00:42:06;;;;;;;7.93;5.97;;;;;;;7.66;nan;99420.34;5019641;28;20222;-77
2023/12/09 00:44:32;;;;;;;10.93;7.03;;;;;;;7.69;nan;99412.31;5026600;28;20207;-77
2023/12/09 00:46:57;;;;;;;12.03;6.20;;;;;;;7.71;nan;99418.31;5032535;28;20624;-77
2023/12/09 00:49:23;;;;;;;9.40;5.87;;;;;;;7.68;nan;99411.47;5007977;28;20202;-78
2023/12/09 00:51:48;;;;;;;6.30;4.93;;;;;;;7.66;nan;99422.94;5020211;28;20202;-77
2023/12/09 00:54:14;;;;;;;8.47;5.73;;;;;;;7.62;nan;99422.28;5031157;28;20206;-78
2023/12/09 00:56:39;;;;;;;13.20;5.23;;;;;;;7.59;nan;99421.59;5033838;28;20208;-78
2023/12/09 00:59:05;;;;;;;9.53;5.37;;;;;;;7.54;nan;99427.09;5033765;28;20210;-77
2023/12/09 01:01:30;;;;;;;7.97;5.00;;;;;;;7.48;nan;99436.09;5033315;28;20301;-77
2023/12/09 01:03:56;;;;;;;6.63;4.37;;;;;;;7.43;nan;99432.06;5030960;28;20290;-77
2023/12/09 01:06:21;;;;;;;7.70;5.70;;;;;;;7.37;nan;99435.84;5029898;28;20768;-78
2023/12/09 01:08:46;;;;;;;9.77;6.00;;;;;;;7.32;nan;99430.84;5038695;28;20513;-77
2023/12/09 01:11:12;;;;;;;9.67;6.10;;;;;;;7.27;nan;99443.31;5025972;28;20855;-77
2023/12/09 01:13:37;;;;;;;10.90;6.00;;;;;;;7.21;nan;99446.25;5025691;28;20206;-77
2023/12/09 01:16:03;;;;;;;6.70;5.23;;;;;;;7.16;nan;99444.81;5025501;28;20231;-77
2023/12/09 01:18:28;;;;;;;7.40;4.50;;;;;;;7.09;nan;99462.53;5022982;28;20616;-78
2023/12/09 01:20:53;;;;;;;6.73;4.80;;;;;;;7.03;nan;99466.31;5035207;28;20193;-77
2023/12/09 01:23:19;;;;;;;5.07;4.60;;;;;;;6.98;nan;99475.31;5027146;28;20229;-78
2023/12/09 01:25:45;;;;;;;18.47;6.80;;;;;;;6.91;nan;99471.31;5025415;28;20212;-77
2023/12/09 01:28:10;;;;;;;6.47;4.20;;;;;;;6.84;nan;99471.63;5026932;28;20194;-77
2023/12/09 01:30:36;;;;;;;6.07;3.30;;;;;;;6.82;nan;99468.25;5025914;28;20588;-78
2023/12/09 01:33:01;;;;;;;3.60;3.03;;;;;;;6.80;nan;99480.53;5024050;28;20288;-77
2023/12/09 01:35:27;;;;;;;3.50;2.83;;;;;;;6.77;nan;99480.69;5028335;28;20405;-77
2023/12/09 01:37:52;;;;;;;5.33;4.13;;;;;;;6.69;nan;99475.00;5028510;28;20198;-77
2023/12/09 01:40:17;;;;;;;8.97;4.67;;;;;;;6.57;nan;99479.06;5028888;28;20312;-78
2023/12/09 01:42:43;;;;;;;5.57;4.40;;;;;;;6.42;nan;99477.19;5028977;28;20193;-78
2023/12/09 01:45:10;;;;;;;6.30;3.90;;;;;;;6.28;nan;99479.66;5035893;28;23836;-77
2023/12/09 01:47:37;;;;;;;7.45;5.65;;;;;;;6.18;nan;99487.03;5029533;28;20288;-77
2023/12/09 01:50:04;;;;;;;4.50;3.97;;;;;;;6.10;nan;99487.44;5021667;28;20325;-78
2023/12/09 01:52:31;;;;;;;7.80;3.63;;;;;;;6.09;nan;99495.31;5028068;28;20213;-77
2023/12/09 01:54:57;;;;;;;8.55;4.50;;;;;;;6.09;nan;99492.72;5024967;28;20309;-78
2023/12/09 01:57:23;;;;;;;11.40;5.03;;;;;;;6.10;nan;99490.03;5025249;28;20202;-77
2023/12/09 01:59:48;;;;;;;9.67;6.43;;;;;;;6.13;nan;99489.03;5026975;28;20198;-77
2023/12/09 02:02:14;;;;;;;10.13;6.00;;;;;;;6.12;nan;99488.19;5019217;28;20281;-77
2023/12/09 02:04:40;;;;;;;9.17;5.60;;;;;;;6.14;nan;99480.31;5028414;28;20218;-77
2023/12/09 02:07:05;;;;;;;12.93;5.87;;;;;;;6.14;nan;99470.72;5029751;28;20206;-77
2023/12/09 02:09:32;;;;;;;8.67;5.13;;;;;;;6.16;nan;99466.28;5029119;28;20440;-77
2023/12/09 02:12:05;;;;;;;10.02;6.90;;;;;;;6.19;nan;99460.91;5028672;28;20850;-77
2023/12/09 02:14:53;;;;;;;10.32;6.85;;;;;;;6.20;nan;99454.75;5029037;28;20213;-78
2023/12/09 02:17:30;;;;;;;6.28;5.30;;;;;;;6.22;nan;99465.13;5020737;28;20289;-78
2023/12/09 02:19:56;;;;;;;4.25;3.85;;;;;;;6.23;nan;99455.53;5029802;28;20212;-77
2023/12/09 02:22:22;;;;;;;7.10;4.10;;;;;;;6.25;nan;99456.31;5023489;28;20631;-78
2023/12/09 02:24:47;;;;;;;7.60;4.37;;;;;;;6.26;nan;99453.63;5030713;28;20549;-77
2023/12/09 02:27:24;;;;;;;4.97;3.60;;;;;;;6.27;nan;99452.72;5016870;28;20194;-77
2023/12/09 02:30:18;;;;;;;7.50;3.90;;;;;;;6.27;nan;99444.91;5030914;28;20723;-77
2023/12/09 02:32:44;;;;;;;7.53;3.85;;;;;;;6.26;nan;99437.97;5025058;28;20201;-77
2023/12/09 02:35:12;;;;;;;6.67;4.07;;;;;;;6.25;nan;99440.66;5030198;28;20606;-77
2023/12/09 02:37:38;;;;;;;5.10;3.97;;;;;;;6.22;nan;99430.38;5022676;28;21013;-77
2023/12/09 02:40:09;;;;;;;3.85;3.42;;;;;;;6.22;nan;99415.59;5029468;28;20386;-77
2023/12/09 02:42:36;;;;;;;4.80;3.47;;;;;;;6.22;nan;99405.16;5026887;28;20204;-77
2023/12/09 02:45:02;;;;;;;10.52;6.93;;;;;;;6.22;nan;99422.56;5020666;28;20815;-77
2023/12/09 02:47:27;;;;;;;6.30;4.73;;;;;;;6.16;nan;99406.28;5025277;28;20198;-77
2023/12/09 02:49:54;;;;;;;7.70;4.60;;;;;;;6.12;nan;99415.16;5027395;28;20203;-77
2023/12/09 02:52:19;;;;;;;7.75;4.75;;;;;;;6.10;nan;99413.56;5024037;28;20284;-77
2023/12/09 02:54:44;;;;;;;7.03;4.30;;;;;;;6.08;nan;99391.94;5035011;28;20339;-77
2023/12/09 02:57:10;;;;;;;4.80;4.00;;;;;;;6.07;nan;99401.50;5026448;28;20195;-77
2023/12/09 02:59:35;;;;;;;5.17;4.23;;;;;;;6.07;nan;99388.47;5025860;28;20229;-77
2023/12/09 03:02:00;;;;;;;5.60;4.60;;;;;;;6.06;nan;99375.53;5031134;28;20197;-77
2023/12/09 03:04:27;;;;;;;6.33;3.97;;;;;;;6.06;nan;99380.75;5024217;28;20237;-77
2023/12/09 03:06:52;;;;;;;9.18;6.00;;;;;;;6.06;nan;99378.97;5027976;28;20369;-77
2023/12/09 03:09:18;;;;;;;13.93;7.70;;;;;;;6.06;nan;99378.13;5028563;28;20201;-77
2023/12/09 03:11:43;;;;;;;17.77;9.77;;;;;;;6.08;nan;99386.72;5029872;28;20218;-77
2023/12/09 03:14:08;;;;;;;9.83;7.57;;;;;;;6.09;nan;99385.81;5031394;28;20284;-77
2023/12/09 03:16:37;;;;;;;11.20;8.03;;;;;;;6.13;nan;99389.94;5029423;28;20198;-77
2023/12/09 03:19:03;;;;;;;7.53;6.70;;;;;;;6.15;nan;99388.94;5026708;28;20983;-77
2023/12/09 03:21:28;;;;;;;10.23;6.67;;;;;;;6.18;nan;99390.56;5024295;28;20206;-77
2023/12/09 03:23:54;;;;;;;7.23;5.50;;;;;;;6.19;nan;99389.66;5034542;28;20248;-77
2023/12/09 03:26:20;;;;;;;6.23;4.40;;;;;;;6.21;nan;99390.41;5025884;28;20297;-77
2023/12/09 03:28:46;;;;;;;8.20;4.63;;;;;;;6.21;nan;99393.00;5032381;28;20250;-77
2023/12/09 03:31:13;;;;;;;5.90;4.57;;;;;;;6.21;nan;99387.78;5031204;28;21051;-77
2023/12/09 03:33:38;;;;;;;5.28;4.57;;;;;;;6.22;nan;99401.69;5033435;28;20391;-77
2023/12/09 03:36:05;;;;;;;7.37;6.67;;;;;;;6.23;nan;99391.19;5023223;28;20292;-77
2023/12/09 03:38:31;;;;;;;6.82;5.55;;;;;;;6.26;nan;99384.97;5026065;28;20213;-77
2023/12/09 03:40:56;;;;;;;8.77;6.20;;;;;;;6.27;nan;99381.47;5025662;28;20197;-77
2023/12/09 03:43:22;;;;;;;6.40;5.83;;;;;;;6.27;nan;99381.47;5023880;28;20786;-77
2023/12/09 03:45:47;;;;;;;10.60;8.13;;;;;;;6.27;nan;99381.47;5029997;28;20209;-77
2023/12/09 03:48:12;;;;;;;6.17;5.50;;;;;;;6.25;nan;99384.13;5023432;28;20909;-77
2023/12/09 03:50:38;;;;;;;5.10;4.60;;;;;;;6.26;nan;99385.81;5029689;28;20214;-77
2023/12/09 03:53:04;;;;;;;5.97;5.37;;;;;;;6.25;nan;99383.28;5030370;28;21125;-77
2023/12/09 03:55:29;;;;;;;8.00;4.88;;;;;;;6.25;nan;99370.25;5027612;28;20217;-77
2023/12/09 03:57:55;;;;;;;6.77;5.93;;;;;;;6.25;nan;99372.84;5029562;28;20252;-77
2023/12/09 04:00:22;;;;;;;5.20;4.70;;;;;;;6.25;nan;99373.69;5028325;28;20202;-77
2023/12/09 04:02:48;;;;;;;6.22;5.70;;;;;;;6.27;nan;99377.06;5026021;28;20729;-77
2023/12/09 04:05:13;;;;;;;7.22;5.07;;;;;;;6.29;nan;99385.69;5028367;28;20174;-77
2023/12/09 04:07:39;;;;;;;8.40;5.67;;;;;;;6.31;nan;99386.44;5020102;28;20233;-77
2023/12/09 04:10:05;;;;;;;8.60;6.37;;;;;;;6.33;nan;99381.97;5029034;28;20199;-77
2023/12/09 04:12:30;;;;;;;8.67;6.77;;;;;;;6.36;nan;99379.22;5023971;28;20276;-77
2023/12/09 04:14:57;;;;;;;13.77;6.80;;;;;;;6.37;nan;99378.31;5028636;28;20500;-77
2023/12/09 04:17:22;;;;;;;7.97;6.15;;;;;;;6.39;nan;99376.44;5029040;28;20881;-77
2023/12/09 04:19:48;;;;;;;9.43;6.27;;;;;;;6.41;nan;99385.06;5026992;28;20284;-77
2023/12/09 04:22:14;;;;;;;6.90;6.27;;;;;;;6.43;nan;99382.38;5021815;28;20202;-77
2023/12/09 04:24:42;;;;;;;6.33;5.43;;;;;;;6.45;nan;99379.69;5018644;28;20226;-77
2023/12/09 04:27:08;;;;;;;8.93;8.02;;;;;;;6.44;nan;99376.22;5027756;28;20221;-77
2023/12/09 04:29:34;;;;;;;7.53;6.10;;;;;;;6.42;nan;99371.06;5027278;28;20202;-77
2023/12/09 04:31:59;;;;;;;7.10;5.10;;;;;;;6.41;nan;99372.00;5034365;28;20218;-77
2023/12/09 04:34:24;;;;;;;8.50;5.93;;;;;;;6.42;nan;99375.44;5026564;28;20248;-77
2023/12/09 04:36:50;;;;;;;4.87;4.30;;;;;;;6.42;nan;99378.91;5022430;28;20200;-77
2023/12/09 04:39:15;;;;;;;8.07;5.13;;;;;;;6.45;nan;99377.91;5033897;28;20217;-77
2023/12/09 04:41:40;;;;;;;7.00;5.30;;;;;;;6.48;nan;99377.78;5027039;28;20903;-77
2023/12/09 04:44:06;;;;;;;4.63;3.70;;;;;;;6.54;nan;99387.91;5028191;28;20658;-77
2023/12/09 04:46:31;;;;;;;6.73;3.20;;;;;;;6.65;nan;99379.53;5029173;28;20208;-77
2023/12/09 04:48:57;;;;;;;4.10;3.17;;;;;;;6.81;nan;99380.41;5023200;28;20287;-77
2023/12/09 04:51:23;;;;;;;6.23;2.20;;;;;;;6.98;nan;99376.91;5016105;28;20207;-77
2023/12/09 04:53:48;;;;;;;4.95;2.45;;;;;;;7.16;nan;99369.06;5025200;28;20906;-77
2023/12/09 04:56:14;;;;;;;5.00;3.40;;;;;;;7.33;nan;99371.59;5022994;28;20195;-77
2023/12/09 04:58:39;;;;;;;5.63;2.73;;;;;;;7.47;nan;99371.66;5031782;28;20289;-77
2023/12/09 05:01:05;;;;;;;5.23;3.13;;;;;;;7.61;nan;99365.69;5027005;28;20255;-77
2023/12/09 05:03:31;;;;;;;5.30;2.33;;;;;;;7.75;nan;99360.56;5025675;28;20210;-77
2023/12/09 05:05:56;;;;;;;5.13;1.70;;;;;;;7.88;nan;99370.31;5022009;28;20206;-77
2023/12/09 05:08:21;;;;;;;2.33;1.77;;;;;;;8.00;nan;99367.00;5019207;28;20293;-77
2023/12/09 05:10:48;;;;;;;6.93;2.30;;;;;;;8.08;nan;99362.19;5024670;28;20237;-77
2023/12/09 05:13:13;;;;;;;3.60;1.83;;;;;;;8.14;nan;99364.44;5022147;28;20671;-77
2023/12/09 05:15:39;;;;;;;2.07;1.53;;;;;;;8.17;nan;99369.50;5019944;28;20198;-77
2023/12/09 05:18:04;;;;;;;2.43;2.17;;;;;;;8.20;nan;99373.69;5017926;28;20203;-77
2023/12/09 05:20:30;;;;;;;7.83;2.20;;;;;;;8.24;nan;99369.16;5022428;28;20202;-77
2023/12/09 05:22:55;;;;;;;1.97;1.43;;;;;;;8.28;nan;99362.81;5022164;28;20193;-77
2023/12/09 05:25:21;;;;;;;4.40;2.30;;;;;;;8.30;nan;99355.72;5021651;28;20300;-77
2023/12/09 05:27:47;;;;;;;3.80;1.50;;;;;;;8.31;nan;99353.00;5022078;28;20205;-77
2023/12/09 05:30:12;;;;;;;4.20;2.23;;;;;;;8.33;nan;99355.53;5021064;28;20301;-77
2023/12/09 05:32:37;;;;;;;2.30;2.10;;;;;;;8.34;nan;99346.72;5032676;28;20483;-77
2023/12/09 05:35:03;;;;;;;6.57;2.33;;;;;;;8.36;nan;99345.72;5026382;28;20216;-76
2023/12/09 05:37:29;;;;;;;3.13;2.30;;;;;;;8.38;nan;99336.00;5032970;28;20182;-77
2023/12/09 05:39:54;;;;;;;3.87;2.33;;;;;;;8.39;nan;99321.16;5031404;28;20194;-77
2023/12/09 05:42:20;;;;;;;3.80;2.03;;;;;;;8.42;nan;99318.38;5039505;28;20190;-77
2023/12/09 05:44:45;;;;;;;4.50;1.77;;;;;;;8.44;nan;99306.03;5031899;28;20230;-77
2023/12/09 05:47:11;;;;;;;5.90;1.80;;;;;;;8.47;nan;99318.09;5030958;28;20740;-76
2023/12/09 05:49:36;;;;;;;5.60;2.00;;;;;;;8.48;nan;99302.31;5034334;28;20178;-76
2023/12/09 05:52:01;;;;;;;2.97;2.60;;;;;;;8.48;nan;99297.09;5031041;28;20210;-76
2023/12/09 05:54:27;;;;;;;2.80;1.57;;;;;;;8.50;nan;99299.59;5031256;28;20209;-77
2023/12/09 05:56:52;;;;;;;2.40;1.93;;;;;;;8.49;nan;99296.13;5026547;28;20683;-77
2023/12/09 05:59:18;;;;;;;1.53;1.30;;;;;;;8.49;nan;99297.91;5032521;28;20221;-76
2023/12/09 06:01:43;;;;;;;2.10;1.40;;;;;;;8.49;nan;99301.38;5028976;28;20288;-76
2023/12/09 06:04:08;;;;;;;2.50;1.37;;;;;;;8.49;nan;99306.59;5032717;28;20536;-77
2023/12/09 06:06:34;;;;;;;2.10;1.40;;;;;;;8.52;nan;99302.97;5023011;28;20233;-77
2023/12/09 06:09:00;;;;;;;5.77;1.80;;;;;;;8.53;nan;99310.75;5033198;28;20225;-76
2023/12/09 06:11:25;;;;;;;1.67;1.57;;;;;;;8.53;nan;99305.50;5032166;28;20230;-76
2023/12/09 06:13:50;;;;;;;6.43;2.00;;;;;;;8.53;nan;99302.03;5032596;28;20279;-76
2023/12/09 06:16:19;;;;;;;1.37;1.10;;;;;;;8.53;nan;99304.63;5030946;28;20198;-76
2023/12/09 06:18:48;;;;;;;4.32;2.15;;;;;;;8.54;nan;99301.94;5027608;28;20285;-76
2023/12/09 06:21:24;;;;;;;2.25;1.95;;;;;;;8.56;nan;99299.22;5027492;28;20190;-76
2023/12/09 06:23:50;;;;;;;4.22;1.52;;;;;;;8.58;nan;99289.50;5034362;28;20256;-76
2023/12/09 06:26:16;;;;;;;1.17;1.08;;;;;;;8.58;nan;99292.97;5034274;28;20226;-77
2023/12/09 06:28:42;;;;;;;1.80;1.42;;;;;;;8.60;nan;99285.84;5036903;28;20195;-76
2023/12/09 06:31:09;;;;;;;2.13;1.30;;;;;;;8.61;nan;99284.06;5021011;28;20217;-77
2023/12/09 06:33:35;;;;;;;3.35;1.60;;;;;;;8.61;nan;99277.09;5028245;28;20224;-76
2023/12/09 06:36:01;;;;;;;1.80;1.17;;;;;;;8.62;nan;99276.13;5026241;28;20293;-76
2023/12/09 06:38:26;;;;;;;4.50;3.20;;;;;;;8.62;nan;99284.00;5028347;28;20206;-77
2023/12/09 06:40:52;;;;;;;3.53;1.60;;;;;;;8.63;nan;99272.56;5029133;28;20288;-76
2023/12/09 06:43:17;;;;;;;1.40;1.27;;;;;;;8.64;nan;99265.56;5022664;28;20277;-76
2023/12/09 06:45:42;;;;;;;2.53;1.43;;;;;;;8.63;nan;99249.00;5017955;28;20206;-76
2023/12/09 06:48:08;;;;;;;1.50;1.20;;;;;;;8.62;nan;99252.56;5025908;28;20209;-76
2023/12/09 06:50:33;;;;;;;2.60;1.97;;;;;;;8.59;nan;99257.16;5024987;28;23620;-77
2023/12/09 06:53:01;;;;;;;1.77;1.40;;;;;;;8.57;nan;99262.47;5028359;28;20212;-76
2023/12/09 06:55:27;;;;;;;3.45;1.45;;;;;;;8.54;nan;99260.06;5025224;28;20193;-76
2023/12/09 06:57:53;;;;;;;2.83;1.70;;;;;;;8.52;nan;99263.69;5023023;28;20200;-76
2023/12/09 07:00:18;;;;;;;1.77;1.50;;;;;;;8.50;nan;99269.00;5027065;28;20196;-76
2023/12/09 07:02:44;;;;;;;1.10;0.90;;;;;;;8.47;nan;99269.22;5024692;28;20190;-76
2023/12/09 07:05:15;;;;;;;3.27;1.87;;;;;;;8.46;nan;99283.25;5023024;28;20737;-76
2023/12/09 07:07:41;;;;;;;3.83;1.35;;;;;;;8.45;nan;99286.78;5016445;28;20239;-77
2023/12/09 07:10:07;;;;;;;1.80;1.37;;;;;;;8.44;nan;99292.94;5018468;28;20182;-77
2023/12/09 07:12:33;;;;;;;2.15;1.75;;;;;;;8.42;nan;99297.44;5031179;28;20232;-76
2023/12/09 07:14:59;;;;;;;4.13;1.98;;;;;;;8.39;nan;99284.53;5027633;28;20642;-76
2023/12/09 07:17:25;;;;;;;3.00;1.70;;;;;;;8.36;nan;99284.69;5023169;28;20293;-76
2023/12/09 07:19:54;;;;;;;3.80;2.30;;;;;;;8.32;nan;99286.66;5026316;28;20209;-76
2023/12/09 07:22:20;;;;;;;3.88;2.35;;;;;;;8.30;nan;99290.28;5030168;28;20220;-76
2023/12/09 07:24:46;;;;;;;4.13;2.30;;;;;;;8.28;nan;99294.75;5025649;28;20214;-77
2023/12/09 07:27:11;;;;;;;2.00;1.60;;;;;;;8.29;nan;99285.97;5027860;28;20205;-76
2023/12/09 07:29:37;;;;;;;1.90;1.70;;;;;;;8.28;nan;99285.13;5027415;28;20573;-76
2023/12/09 07:32:04;;;;;;;2.33;1.77;;;;;;;8.29;nan;99280.75;5029063;28;20230;-76
2023/12/09 07:34:29;;;;;;;2.13;1.55;;;;;;;8.32;nan;99272.72;5021095;28;20985;-76
2023/12/09 07:36:56;;;;;;;5.43;1.70;;;;;;;8.34;nan;99273.47;5033089;28;20205;-76
2023/12/09 07:39:21;;;;;;;5.75;1.80;;;;;;;8.35;nan;99277.78;5019010;28;20206;-77
2023/12/09 07:41:50;;;;;;;4.47;1.97;;;;;;;8.39;nan;99271.44;5027301;28;20194;-76
2023/12/09 07:44:17;;;;;;;1.98;1.40;;;;;;;8.43;nan;99275.56;5030178;28;20859;-79
2023/12/09 07:46:42;;;;;;;2.20;1.45;;;;;;;8.46;nan;99277.16;5026468;28;20202;-76
2023/12/09 07:49:08;;;;;;;4.03;1.90;;;;;;;8.49;nan;99282.22;5030736;28;20248;-76
2023/12/09 07:51:33;;;;;;;2.10;1.70;;;;;;;8.52;nan;99271.56;5024922;28;20210;-79
2023/12/09 07:53:58;;;;;;;2.43;1.87;;;;;;;8.54;nan;99278.38;5029494;28;20264;-79
2023/12/09 07:56:24;;;;;;;1.43;1.20;;;;;;;8.56;nan;99278.28;5038319;28;20638;-79
2023/12/09 07:58:49;;;;;;;2.37;1.93;;;;;;;8.58;nan;99277.25;5028073;28;20193;-79
2023/12/09 08:01:14;;;;;;;2.10;1.63;;;;;;;8.61;nan;99273.59;5038291;28;20205;-79
2023/12/09 08:03:40;;;;;;;2.17;1.40;;;;;;;8.68;nan;99274.09;5029456;28;20304;-79
2023/12/09 08:06:06;;;;;;;1.73;1.00;;;;;;;8.72;nan;99267.72;5031903;28;20301;-78
2023/12/09 08:08:32;;;;;;;1.38;1.23;;;;;;;8.77;nan;99271.72;5030910;28;20193;-78
2023/12/09 08:10:58;;;;;;;2.60;1.40;;;;;;;8.85;nan;99273.88;5032077;28;20208;-79
2023/12/09 08:13:24;;;;;;;2.15;1.05;;;;;;;8.90;nan;99269.19;5031904;28;20202;-79
2023/12/09 08:15:49;;;;;;;5.53;2.00;;;;;;;8.96;nan;99271.44;5037312;28;20570;-79
2023/12/09 08:18:16;;;;;;;1.07;0.97;;;;;;;9.02;nan;99278.94;5028279;28;20649;-78
2023/12/09 08:20:41;;;;;;;3.60;1.35;;;;;;;9.09;nan;99272.34;5029158;28;20591;-78
2023/12/09 08:23:07;;;;;;;7.20;1.60;;;;;;;9.13;nan;99266.91;5022874;28;20209;-78
2023/12/09 08:25:32;;;;;;;4.63;1.63;;;;;;;9.16;nan;99264.97;5023029;28;20766;-78
2023/12/09 08:27:57;;;;;;;2.83;1.57;;;;;;;9.20;nan;99262.97;5032144;28;20213;-79
2023/12/09 08:30:23;;;;;;;2.57;1.20;;;;;;;9.23;nan;99263.59;5029874;28;20202;-79
2023/12/09 08:32:48;;;;;;;1.00;0.80;;;;;;;9.28;nan;99266.78;5039121;28;20687;-79
2023/12/09 08:35:14;;;;;;;1.50;1.20;;;;;;;9.31;nan;99260.50;5026840;28;20201;-80
2023/12/09 08:37:39;;;;;;;2.67;1.67;;;;;;;9.34;nan;99247.19;5030783;28;20967;-79
2023/12/09 08:40:10;;;;;;;1.50;1.40;;;;;;;9.38;nan;99250.47;5037309;28;20281;-79
2023/12/09 08:42:39;;;;;;;1.35;1.05;;;;;;;9.42;nan;99254.56;5025406;28;20262;-79
2023/12/09 08:45:08;;;;;;;2.28;1.00;;;;;;;9.44;nan;99240.44;5034310;28;20597;-79
2023/12/09 08:47:33;;;;;;;3.05;1.10;;;;;;;9.45;nan;99230.78;5031806;28;20186;-79
2023/12/09 08:49:59;;;;;;;1.83;1.57;;;;;;;9.45;nan;99218.53;5028818;28;20292;-79
2023/12/09 08:52:24;;;;;;;1.63;1.50;;;;;;;9.45;nan;99218.53;5044470;28;20285;-79
2023/12/09 08:54:49;;;;;;;2.03;1.20;;;;;;;9.44;nan;99224.69;5029247;28;20197;-80
2023/12/09 08:57:15;;;;;;;2.87;1.40;;;;;;;9.44;nan;99229.09;5032981;28;20469;-79
2023/12/09 08:59:40;;;;;;;2.60;1.17;;;;;;;9.44;nan;99234.34;5030959;28;20280;-79
2023/12/09 09:02:06;;;;;;;2.37;1.40;;;;;;;9.47;nan;99237.59;5033889;28;20269;-79
2023/12/09 09:04:32;;;;;;;1.10;1.00;;;;;;;9.48;nan;99225.38;5028096;28;20256;-79
2023/12/09 09:06:57;;;;;;;2.20;1.60;;;;;;;9.50;nan;99226.06;5040073;28;20788;-79
2023/12/09 09:09:22;;;;;;;2.97;1.33;;;;;;;9.54;nan;99230.19;5032727;28;20285;-79
2023/12/09 09:11:48;;;;;;;1.67;1.30;;;;;;;9.60;nan;99216.69;5027112;28;20280;-79
2023/12/09 09:14:13;;;;;;;1.90;1.00;;;;;;;9.65;nan;99219.00;5047330;28;20194;-79
2023/12/09 09:16:38;;;;;;;2.23;1.30;;;;;;;9.65;nan;99206.72;5036641;28;20212;-79
2023/12/09 09:19:04;;;;;;;2.20;1.40;;;;;;;9.67;nan;99212.72;5033900;28;20209;-79
2023/12/09 09:21:30;;;;;;;1.27;1.10;;;;;;;9.65;nan;99209.34;5032033;28;20280;-79
2023/12/09 09:23:55;;;;;;;1.40;1.30;;;;;;;9.68;nan;99200.44;5029897;28;20525;-79
2023/12/09 09:26:21;;;;;;;2.60;1.40;;;;;;;9.69;nan;99210.84;5025706;28;20288;-78
2023/12/09 09:28:47;;;;;;;1.55;1.30;;;;;;;9.72;nan;99215.00;5027406;28;20182;-79
2023/12/09 09:31:13;;;;;;;1.73;1.30;;;;;;;9.74;nan;99210.50;5025393;28;20208;-79
2023/12/09 09:33:38;;;;;;;1.33;1.23;;;;;;;9.75;nan;99207.81;5023727;28;20246;-79
2023/12/09 09:36:04;;;;;;;1.83;1.43;;;;;;;9.77;nan;99205.06;5022747;28;20203;-79
2023/12/09 09:38:29;;;;;;;2.13;1.63;;;;;;;9.77;nan;99199.81;5023019;28;20202;-79
2023/12/09 09:40:56;;;;;;;4.03;1.97;;;;;;;9.75;nan;99192.06;5021305;28;20281;-79
2023/12/09 09:43:25;;;;;;;3.13;2.10;;;;;;;9.74;nan;99184.28;5021812;28;20366;-78
2023/12/09 09:45:54;;;;;;;1.67;1.58;;;;;;;9.72;nan;99180.91;5024905;28;20692;-78
2023/12/09 09:48:24;;;;;;;1.80;1.15;;;;;;;9.71;nan;99185.31;5028042;28;20208;-78
2023/12/09 09:50:52;;;;;;;1.80;1.13;;;;;;;9.71;nan;99180.09;5022625;28;20579;-79
2023/12/09 09:53:31;;;;;;;5.05;1.55;;;;;;;9.69;nan;99171.50;5023053;28;20199;-79
2023/12/09 09:55:58;;;;;;;1.48;0.98;;;;;;;9.70;nan;99173.16;5019854;28;20301;-79
2023/12/09 09:58:23;;;;;;;1.65;1.30;;;;;;;9.70;nan;99182.81;5023765;28;20677;-78
2023/12/09 10:00:49;;;;;;;1.27;1.00;;;;;;;9.71;nan;99169.59;5018675;28;20211;-79
2023/12/09 10:03:15;;;;;;;1.95;1.20;;;;;;;9.74;nan;99172.00;5025548;28;20206;-79
2023/12/09 10:05:41;;;;;;;1.97;1.20;;;;;;;9.78;nan;99166.59;5024564;28;20201;-79
2023/12/09 10:08:06;;;;;;;2.40;1.67;;;;;;;9.82;nan;99166.25;5021252;28;20369;-78
2023/12/09 10:10:33;;;;;;;3.70;1.43;;;;;;;9.87;nan;99160.69;5013985;28;20990;-79
2023/12/09 10:12:59;;;;;;;2.85;1.13;;;;;;;9.89;nan;99151.78;5021185;28;20195;-78
2023/12/09 10:15:24;;;;;;;2.40;1.50;;;;;;;9.90;nan;99127.22;5027676;28;21315;-79
2023/12/09 10:20:38;;;;;;;2.10;1.30;;;;;;;9.85;nan;99116.19;5370543;22;20262;-77
2023/12/09 10:23:04;;;;;;;2.37;1.20;;;;;;;9.83;nan;99107.63;4968095;28;20937;-77
2023/12/09 10:25:29;;;;;;;3.70;1.93;;;;;;;9.80;nan;99105.19;4971187;28;20211;-77
2023/12/09 10:27:56;;;;;;;1.70;1.20;;;;;;;9.79;nan;99105.28;4966671;28;20200;-77
2023/12/09 10:30:21;;;;;;;3.85;1.40;;;;;;;9.77;nan;99107.19;4964692;28;20203;-77
2023/12/09 10:32:48;;;;;;;2.13;1.30;;;;;;;9.75;nan;99096.81;4966065;28;20203;-78
2023/12/09 10:35:15;;;;;;;2.00;1.83;;;;;;;9.73;nan;99096.06;4966927;28;20576;-78
2023/12/09 10:37:41;;;;;;;2.78;1.45;;;;;;;9.71;nan;99090.09;4965196;28;20524;-77
2023/12/09 10:40:06;;;;;;;2.07;1.20;;;;;;;9.68;nan;99072.78;4965263;28;20842;-77
2023/12/09 10:42:32;;;;;;;1.50;1.37;;;;;;;9.68;nan;99074.56;4966232;28;20196;-77
2023/12/09 10:44:57;;;;;;;4.00;1.57;;;;;;;9.66;nan;99064.16;4968452;28;20466;-78
2023/12/09 10:47:25;;;;;;;2.73;1.20;;;;;;;9.67;nan;99057.16;4950576;28;20954;-77
2023/12/09 10:49:51;;;;;;;2.35;1.20;;;;;;;9.68;nan;99043.09;4964183;28;20210;-77
2023/12/09 10:52:17;;;;;;;2.30;1.30;;;;;;;9.69;nan;99048.25;4967800;28;21146;-78
2023/12/09 10:54:42;;;;;;;3.53;1.80;;;;;;;9.72;nan;99040.16;4968653;28;20208;-78
2023/12/09 10:57:08;;;;;;;10.50;4.43;;;;;;;9.77;nan;99018.84;4969779;28;20751;-77
2023/12/09 10:59:34;;;;;;;11.27;4.63;;;;;;;9.84;nan;99000.91;4963428;28;20295;-77
2023/12/09 11:02:01;;;;;;;5.78;3.70;;;;;;;9.90;nan;98987.34;4965462;28;20459;-77
2023/12/09 11:04:26;;;;;;;3.38;2.90;;;;;;;9.94;nan;98973.91;4970644;28;20200;-78
2023/12/09 11:06:57;;;;;;;2.83;1.93;;;;;;;10.03;nan;98972.41;4968504;28;20245;-78
2023/12/09 11:09:23;;;;;;;4.20;2.30;;;;;;;10.12;nan;98965.66;4968412;28;20201;-78
2023/12/09 11:11:49;;;;;;;3.07;2.30;;;;;;;10.22;nan;98953.56;4967123;28;20222;-78
2023/12/09 11:14:15;;;;;;;4.10;2.17;;;;;;;10.36;nan;98945.53;4968930;28;20480;-78
2023/12/09 11:16:46;;;;;;;2.10;1.90;;;;;;;10.51;nan;98940.13;4967919;28;20302;-78
2023/12/09 11:19:16;;;;;;;3.88;1.70;;;;;;;10.67;nan;98929.31;4968420;28;20207;-77
2023/12/09 11:21:45;;;;;;;4.78;1.33;;;;;;;10.81;nan;98913.34;4964131;28;20248;-78
2023/12/09 11:24:11;;;;;;;1.45;1.00;;;;;;;10.91;nan;98902.97;4966841;28;20242;-78
2023/12/09 11:26:40;;;;;;;3.45;1.30;;;;;;;11.01;nan;98903.94;4967160;28;20322;-78
2023/12/09 11:29:10;;;;;;;2.17;1.25;;;;;;;11.07;nan;98899.06;4966518;28;20471;-78
2023/12/09 11:31:35;;;;;;;1.10;1.00;;;;;;;11.13;nan;98897.75;4966488;28;20223;-78
2023/12/09 11:34:01;;;;;;;2.43;1.20;;;;;;;11.16;nan;98886.16;4964646;28;20775;-78
2023/12/09 11:36:30;;;;;;;5.03;1.50;;;;;;;11.21;nan;98879.59;4965519;28;20230;-78
2023/12/09 11:38:57;;;;;;;5.85;1.70;;;;;;;11.26;nan;98866.06;4966482;28;20200;-78
2023/12/09 11:41:24;;;;;;;2.05;1.35;;;;;;;11.29;nan;98858.78;4965040;28;20787;-78
2023/12/09 11:43:51;;;;;;;1.33;1.00;;;;;;;11.35;nan;98848.75;4967180;28;20414;-78
2023/12/09 11:46:17;;;;;;;2.38;1.90;;;;;;;11.38;nan;98853.78;4969430;28;20199;-78
2023/12/09 11:48:43;;;;;;;1.75;1.00;;;;;;;11.44;nan;98842.75;4968447;28;20205;-78
2023/12/09 11:51:09;;;;;;;1.03;0.93;;;;;;;11.47;nan;98839.88;4963904;28;20238;-78
2023/12/09 11:53:34;;;;;;;1.23;1.13;;;;;;;11.50;nan;98845.75;4968097;28;20451;-78
2023/12/09 11:55:59;;;;;;;3.17;1.13;;;;;;;11.51;nan;98828.19;4967452;28;20242;-78